createdAt,value
2017-08-19T00:01:34.246Z,18.10
2017-08-19T00:04:02.348Z,18.10
2017-08-19T00:06:30.424Z,18.10
2017-08-19T00:08:58.488Z,18.10
2017-08-19T00:11:26.560Z,18.10
2017-08-19T00:13:54.632Z,18.20
2017-08-19T00:16:22.709Z,18.20
2017-08-19T00:18:50.789Z,18.10
2017-08-19T00:21:18.859Z,18.10
2017-08-19T00:23:46.927Z,18.10
2017-08-19T00:26:15.019Z,18.10
2017-08-19T00:28:43.092Z,18.10
2017-08-19T00:31:11.188Z,18.10
2017-08-19T00:33:39.260Z,17.90
2017-08-19T00:36:07.336Z,17.80
2017-08-19T00:38:35.413Z,17.80
2017-08-19T00:41:03.476Z,17.90
2017-08-19T00:43:31.552Z,17.90
2017-08-19T00:45:59.619Z,17.80
2017-08-19T00:48:28.469Z,17.90
2017-08-19T00:50:56.562Z,17.80
2017-08-19T00:53:24.636Z,18.00
2017-08-19T00:55:52.696Z,18.00
2017-08-19T00:58:20.768Z,18.00
2017-08-19T01:00:48.840Z,18.00
2017-08-19T01:03:16.910Z,18.00
2017-08-19T01:05:44.985Z,18.00
2017-08-19T01:08:13.068Z,17.90
2017-08-19T01:10:41.141Z,17.80
2017-08-19T01:13:09.213Z,17.80
2017-08-19T01:15:37.291Z,17.70
2017-08-19T01:18:05.359Z,17.60
2017-08-19T01:20:33.442Z,17.60
2017-08-19T01:23:01.513Z,17.50
2017-08-19T01:25:47.473Z,17.60
2017-08-19T01:28:15.551Z,17.70
2017-08-19T01:30:43.627Z,17.70
2017-08-19T01:33:11.713Z,17.60
2017-08-19T01:35:39.785Z,17.60
2017-08-19T01:38:07.869Z,17.70
2017-08-19T01:40:35.949Z,17.70
2017-08-19T01:43:04.779Z,17.70
2017-08-19T01:45:32.851Z,17.70
2017-08-19T01:48:00.915Z,17.80
2017-08-19T01:50:28.983Z,17.70
2017-08-19T01:52:57.056Z,17.50
2017-08-19T01:55:25.133Z,17.40
2017-08-19T01:57:53.203Z,17.40
2017-08-19T02:00:21.304Z,17.40
2017-08-19T02:02:49.376Z,17.30
2017-08-19T02:05:17.449Z,17.30
2017-08-19T02:07:45.538Z,17.30
2017-08-19T02:10:13.603Z,17.40
2017-08-19T02:12:41.679Z,17.40
2017-08-19T02:15:09.895Z,17.50
2017-08-19T02:17:37.969Z,17.50
2017-08-19T02:20:06.040Z,17.60
2017-08-19T02:22:34.132Z,17.50
2017-08-19T02:25:02.212Z,17.60
2017-08-19T02:27:30.303Z,17.60
2017-08-19T02:29:58.388Z,17.60
2017-08-19T02:32:26.472Z,17.60
2017-08-19T02:34:55.333Z,17.50
2017-08-19T02:37:23.428Z,17.50
2017-08-19T02:39:51.510Z,17.50
2017-08-19T02:42:19.573Z,17.40
2017-08-19T02:44:47.674Z,17.30
2017-08-19T02:47:15.751Z,17.30
2017-08-19T02:49:43.832Z,17.10
2017-08-19T02:52:11.901Z,17.00
2017-08-19T02:54:39.992Z,17.00
2017-08-19T02:57:08.064Z,16.90
2017-08-19T02:59:36.135Z,16.90
2017-08-19T03:02:04.212Z,16.80
2017-08-19T03:04:32.307Z,16.70
2017-08-19T03:07:00.391Z,16.60
2017-08-19T03:09:28.478Z,16.60
2017-08-19T03:11:56.548Z,16.70
2017-08-19T03:14:24.613Z,16.70
2017-08-19T03:16:52.721Z,16.80
2017-08-19T03:19:20.774Z,16.80
2017-08-19T03:21:48.866Z,16.80
2017-08-19T03:24:17.936Z,16.90
2017-08-19T03:26:46.016Z,17.00
2017-08-19T03:29:14.089Z,16.90
2017-08-19T03:31:42.938Z,16.80
2017-08-19T03:34:11.471Z,16.80
2017-08-19T03:36:39.547Z,16.80
2017-08-19T03:39:07.613Z,16.70
2017-08-19T03:41:36.476Z,16.80
2017-08-19T03:44:04.547Z,16.80
2017-08-19T03:46:32.616Z,16.90
2017-08-19T03:49:00.691Z,16.80
2017-08-19T03:51:28.768Z,16.80
2017-08-19T03:53:56.844Z,16.80
2017-08-19T03:56:24.939Z,16.70
2017-08-19T03:58:53.785Z,16.70
2017-08-19T04:01:21.861Z,16.60
2017-08-19T04:03:49.948Z,16.60
2017-08-19T04:06:18.025Z,16.60
2017-08-19T04:08:46.091Z,16.60
2017-08-19T04:11:14.165Z,16.60
2017-08-19T04:13:42.244Z,16.60
2017-08-19T04:16:10.320Z,16.70
2017-08-19T04:18:38.392Z,16.70
2017-08-19T04:21:06.467Z,16.70
2017-08-19T04:23:34.537Z,16.60
2017-08-19T04:26:02.614Z,16.60
2017-08-19T04:28:31.456Z,16.50
2017-08-19T04:30:59.608Z,16.50
2017-08-19T04:33:27.672Z,16.50
2017-08-19T04:35:55.769Z,16.60
2017-08-19T04:38:23.837Z,16.60
2017-08-19T04:40:51.911Z,16.60
2017-08-19T04:43:19.992Z,16.60
2017-08-19T04:45:48.059Z,16.60
2017-08-19T04:48:16.140Z,16.60
2017-08-19T04:50:44.211Z,16.60
2017-08-19T04:53:12.295Z,16.70
2017-08-19T04:55:40.407Z,16.70
2017-08-19T04:58:09.281Z,16.90
2017-08-19T05:00:37.378Z,16.90
2017-08-19T05:03:05.452Z,16.90
2017-08-19T05:05:34.284Z,17.00
2017-08-19T05:08:02.368Z,17.00
2017-08-19T05:10:30.444Z,17.00
2017-08-19T05:12:58.531Z,17.00
2017-08-19T05:15:26.601Z,16.90
2017-08-19T05:17:54.672Z,16.90
2017-08-19T05:20:22.744Z,17.00
2017-08-19T05:22:50.828Z,17.00
2017-08-19T05:25:18.899Z,17.10
2017-08-19T05:27:46.958Z,17.10
2017-08-19T05:30:15.047Z,17.10
2017-08-19T05:32:43.120Z,17.10
2017-08-19T05:35:11.208Z,17.10
2017-08-19T05:37:39.369Z,17.10
2017-08-19T05:40:07.447Z,17.10
2017-08-19T05:42:35.539Z,17.10
2017-08-19T05:45:03.638Z,17.20
2017-08-19T05:47:31.709Z,17.20
2017-08-19T05:49:59.878Z,17.20
2017-08-19T05:52:27.991Z,17.20
2017-08-19T05:54:56.075Z,17.20
2017-08-19T05:57:24.164Z,17.20
2017-08-19T05:59:52.223Z,17.20
2017-08-19T06:02:20.304Z,17.30
2017-08-19T06:04:48.370Z,17.30
2017-08-19T06:07:16.443Z,17.20
2017-08-19T06:09:45.281Z,17.20
2017-08-19T06:12:13.361Z,17.20
2017-08-19T06:14:41.429Z,17.20
2017-08-19T06:17:09.516Z,17.20
2017-08-19T06:19:37.610Z,17.20
2017-08-19T06:22:06.491Z,17.30
2017-08-19T06:24:34.558Z,17.20
2017-08-19T06:27:02.637Z,17.30
2017-08-19T06:29:30.708Z,17.30
2017-08-19T06:31:58.781Z,17.30
2017-08-19T06:34:26.859Z,17.30
2017-08-19T06:36:54.932Z,17.10
2017-08-19T06:39:23.004Z,17.10
2017-08-19T06:41:51.080Z,17.10
2017-08-19T06:44:19.177Z,17.10
2017-08-19T06:46:48.013Z,17.10
2017-08-19T06:49:16.123Z,17.00
2017-08-19T06:51:44.196Z,17.00
2017-08-19T06:54:12.267Z,16.90
2017-08-19T06:56:40.339Z,16.90
2017-08-19T06:59:08.424Z,16.80
2017-08-19T07:01:36.495Z,16.80
2017-08-19T07:04:05.340Z,16.80
2017-08-19T07:06:33.418Z,16.80
2017-08-19T07:09:01.720Z,16.90
2017-08-19T07:11:29.825Z,16.90
2017-08-19T07:13:57.901Z,16.90
2017-08-19T07:16:25.979Z,17.00
2017-08-19T07:18:54.047Z,17.10
2017-08-19T07:21:22.137Z,17.20
2017-08-19T07:23:50.217Z,17.20
2017-08-19T07:26:18.299Z,17.10
2017-08-19T07:28:46.363Z,17.10
2017-08-19T07:31:14.437Z,17.10
2017-08-19T07:33:42.519Z,17.10
2017-08-19T07:36:10.804Z,17.10
2017-08-19T07:38:38.928Z,17.10
2017-08-19T07:41:07.022Z,17.20
2017-08-19T07:43:35.108Z,17.30
2017-08-19T07:46:03.184Z,17.30
2017-08-19T07:48:31.271Z,17.30
2017-08-19T07:50:59.340Z,17.30
2017-08-19T07:53:27.425Z,17.40
2017-08-19T07:55:55.498Z,17.40
2017-08-19T07:58:23.580Z,17.40
2017-08-19T08:00:51.865Z,17.50
2017-08-19T08:03:20.702Z,17.70
2017-08-19T08:05:48.785Z,17.70
2017-08-19T08:08:16.867Z,17.90
2017-08-19T08:10:44.956Z,17.90
2017-08-19T08:13:13.040Z,18.00
2017-08-19T08:15:41.160Z,17.90
2017-08-19T08:18:09.233Z,17.70
2017-08-19T08:20:37.329Z,17.60
2017-08-19T08:23:05.436Z,17.60
2017-08-19T08:25:34.312Z,17.60
2017-08-19T08:28:02.409Z,17.50
2017-08-19T08:30:30.555Z,17.60
2017-08-19T08:32:58.654Z,17.60
2017-08-19T08:35:26.779Z,17.60
2017-08-19T08:37:54.892Z,17.60
2017-08-19T08:40:23.772Z,17.80
2017-08-19T08:42:51.880Z,17.70
2017-08-19T08:45:19.981Z,17.90
2017-08-19T08:47:48.088Z,18.10
2017-08-19T08:50:16.953Z,18.20
2017-08-19T08:52:45.046Z,18.20
2017-08-19T08:55:13.167Z,18.30
2017-08-19T08:57:41.316Z,18.40
2017-08-19T09:00:09.453Z,18.50
2017-08-19T09:02:37.547Z,18.70
2017-08-19T09:05:06.687Z,18.90
2017-08-19T09:07:34.776Z,19.00
2017-08-19T09:10:02.912Z,19.10
2017-08-19T09:12:31.865Z,19.10
2017-08-19T09:15:00.890Z,19.20
2017-08-19T09:17:28.995Z,19.20
2017-08-19T09:19:57.171Z,19.20
2017-08-19T09:22:25.357Z,19.10
2017-08-19T09:24:54.428Z,18.90
2017-08-19T09:27:22.504Z,19.00
2017-08-19T09:29:50.628Z,19.10
2017-08-19T09:32:18.801Z,19.10
2017-08-19T09:34:46.902Z,19.00
2017-08-19T09:37:15.099Z,18.90
2017-08-19T09:39:43.213Z,18.90
2017-08-19T09:42:19.155Z,19.00
2017-08-19T09:44:47.257Z,19.00
2017-08-19T09:47:15.520Z,19.10
2017-08-19T09:49:43.689Z,19.10
2017-08-19T09:52:11.773Z,19.30
2017-08-19T09:54:39.883Z,19.50
2017-08-19T09:57:08.740Z,19.60
2017-08-19T09:59:36.810Z,19.60
2017-08-19T10:02:04.884Z,19.60
2017-08-19T10:04:32.955Z,19.80
2017-08-19T10:07:01.039Z,19.90
2017-08-19T10:09:48.507Z,20.10
2017-08-19T10:12:16.567Z,20.10
2017-08-19T10:14:44.635Z,20.20
2017-08-19T10:17:12.773Z,20.30
2017-08-19T10:19:40.842Z,20.20
2017-08-19T10:22:08.916Z,20.30
2017-08-19T10:24:37.091Z,20.30
2017-08-19T10:27:05.189Z,20.20
2017-08-19T10:29:33.259Z,20.40
2017-08-19T10:32:01.345Z,20.30
2017-08-19T10:34:29.446Z,20.40
2017-08-19T10:36:57.529Z,20.50
2017-08-19T10:39:25.616Z,20.40
2017-08-19T10:41:53.692Z,20.40
2017-08-19T10:44:21.796Z,20.50
2017-08-19T10:46:49.867Z,20.60
2017-08-19T10:49:17.944Z,20.60
2017-08-19T10:51:46.016Z,20.60
2017-08-19T10:54:14.094Z,20.90
2017-08-19T10:56:42.954Z,20.90
2017-08-19T10:59:11.023Z,20.90
2017-08-19T11:01:39.216Z,20.80
2017-08-19T11:04:07.288Z,20.50
2017-08-19T11:06:35.373Z,20.40
2017-08-19T11:09:03.444Z,20.30
2017-08-19T11:11:31.519Z,20.00
2017-08-19T11:14:00.364Z,19.90
2017-08-19T11:16:28.456Z,19.90
2017-08-19T11:18:56.523Z,19.80
2017-08-19T11:21:24.596Z,19.70
2017-08-19T11:23:52.675Z,19.50
2017-08-19T11:26:20.754Z,19.60
2017-08-19T11:28:48.832Z,19.70
2017-08-19T11:31:16.907Z,19.70
2017-08-19T11:33:44.987Z,19.70
2017-08-19T11:36:13.059Z,19.70
2017-08-19T11:38:41.140Z,19.70
2017-08-19T11:41:09.210Z,19.80
2017-08-19T11:43:38.067Z,20.10
2017-08-19T11:46:06.143Z,20.10
2017-08-19T11:48:34.268Z,20.20
2017-08-19T11:51:02.338Z,20.40
2017-08-19T11:53:30.417Z,20.50
2017-08-19T11:55:58.491Z,20.60
2017-08-19T11:58:26.588Z,20.70
2017-08-19T12:00:54.668Z,20.70
2017-08-19T12:03:22.740Z,20.70
2017-08-19T12:05:50.819Z,20.60
2017-08-19T12:08:18.892Z,20.50
2017-08-19T12:10:46.968Z,20.60
2017-08-19T12:13:15.052Z,20.80
2017-08-19T12:15:44.152Z,20.80
2017-08-19T12:18:12.220Z,20.80
2017-08-19T12:20:40.339Z,20.80
2017-08-19T12:23:08.448Z,20.80
2017-08-19T12:25:36.512Z,20.80
2017-08-19T12:28:04.596Z,20.90
2017-08-19T12:30:32.785Z,21.10
2017-08-19T12:33:00.864Z,21.00
2017-08-19T12:35:29.961Z,21.00
2017-08-19T12:37:58.043Z,21.10
2017-08-19T12:40:26.121Z,21.10
2017-08-19T12:42:54.992Z,21.10
2017-08-19T12:45:23.070Z,21.10
2017-08-19T12:47:51.146Z,21.00
2017-08-19T12:50:19.220Z,20.90
2017-08-19T12:52:47.307Z,20.90
2017-08-19T12:55:17.091Z,21.20
2017-08-19T12:57:45.152Z,21.20
2017-08-19T13:00:13.228Z,21.50
2017-08-19T13:02:41.403Z,21.70
2017-08-19T13:05:09.476Z,21.80
2017-08-19T13:07:37.543Z,21.90
2017-08-19T13:10:05.616Z,21.80
2017-08-19T13:12:33.683Z,21.60
2017-08-19T13:15:01.766Z,21.60
2017-08-19T13:17:29.832Z,21.50
2017-08-19T13:19:57.915Z,21.40
2017-08-19T13:22:26.003Z,21.40
2017-08-19T13:24:54.076Z,21.50
2017-08-19T13:27:22.148Z,21.50
2017-08-19T13:29:50.220Z,21.70
2017-08-19T13:32:18.291Z,21.80
2017-08-19T13:34:46.355Z,21.70
2017-08-19T13:37:14.436Z,21.80
2017-08-19T13:39:42.553Z,21.90
2017-08-19T13:42:10.639Z,22.00
2017-08-19T13:44:38.707Z,22.10
2017-08-19T13:47:06.786Z,22.10
2017-08-19T13:49:34.859Z,22.20
2017-08-19T13:52:02.949Z,22.10
2017-08-19T13:54:31.015Z,22.10
2017-08-19T13:56:59.095Z,22.10
2017-08-19T13:59:27.178Z,22.20
2017-08-19T14:01:55.251Z,22.20
2017-08-19T14:04:23.327Z,22.20
2017-08-19T14:06:51.395Z,22.30
2017-08-19T14:09:19.480Z,22.20
2017-08-19T14:11:47.543Z,22.30
2017-08-19T14:14:17.319Z,22.30
2017-08-19T14:16:46.632Z,22.30
2017-08-19T14:19:17.186Z,22.40
2017-08-19T14:21:45.957Z,22.40
2017-08-19T14:24:20.383Z,22.40
2017-08-19T14:26:50.704Z,22.40
2017-08-19T14:29:21.700Z,22.50
2017-08-19T14:31:51.143Z,22.50
2017-08-19T14:34:22.405Z,22.60
2017-08-19T14:36:51.761Z,22.70
2017-08-19T14:39:21.502Z,22.50
2017-08-19T14:41:50.431Z,22.30
2017-08-19T14:44:25.361Z,22.20
2017-08-19T14:46:53.611Z,22.10
2017-08-19T14:49:23.557Z,22.00
2017-08-19T14:51:52.411Z,22.00
2017-08-19T14:54:20.488Z,22.00
2017-08-19T14:56:48.584Z,22.00
2017-08-19T14:59:17.383Z,22.00
2017-08-19T15:01:46.296Z,22.00
2017-08-19T15:04:14.459Z,22.00
2017-08-19T15:06:42.562Z,21.90
2017-08-19T15:09:10.644Z,22.00
2017-08-19T15:11:38.721Z,22.00
2017-08-19T15:14:06.796Z,22.00
2017-08-19T15:16:34.884Z,22.00
2017-08-19T15:19:02.951Z,22.20
2017-08-19T15:21:31.018Z,22.30
2017-08-19T15:23:59.096Z,22.30
2017-08-19T15:26:27.285Z,22.20
2017-08-19T15:28:55.355Z,22.20
2017-08-19T15:31:23.435Z,22.10
2017-08-19T15:33:51.512Z,22.10
2017-08-19T15:36:19.584Z,22.30
2017-08-19T15:38:47.718Z,22.30
2017-08-19T15:41:15.805Z,22.30
2017-08-19T15:43:43.891Z,22.20
2017-08-19T15:46:11.981Z,22.20
2017-08-19T15:48:40.061Z,22.20
2017-08-19T15:51:08.905Z,22.00
2017-08-19T15:53:37.046Z,22.00
2017-08-19T15:56:05.119Z,21.90
2017-08-19T15:58:33.200Z,21.80
2017-08-19T16:01:01.285Z,21.70
2017-08-19T16:03:29.373Z,21.70
2017-08-19T16:05:57.533Z,21.70
2017-08-19T16:08:25.629Z,21.70
2017-08-19T16:10:53.713Z,21.80
2017-08-19T16:13:21.794Z,21.70
2017-08-19T16:15:49.892Z,21.60
2017-08-19T16:18:18.032Z,21.60
2017-08-19T16:20:46.117Z,21.50
2017-08-19T16:23:14.956Z,21.50
2017-08-19T16:25:43.048Z,21.50
2017-08-19T16:28:11.120Z,21.60
2017-08-19T16:30:39.191Z,21.60
2017-08-19T16:33:07.299Z,21.70
2017-08-19T16:35:35.352Z,21.80
2017-08-19T16:38:03.437Z,21.90
2017-08-19T16:40:31.523Z,22.00
2017-08-19T16:43:00.373Z,22.00
2017-08-19T16:45:28.443Z,22.00
2017-08-19T16:47:56.516Z,22.00
2017-08-19T16:50:24.587Z,21.90
2017-08-19T16:52:52.677Z,21.70
2017-08-19T16:55:20.746Z,21.40
2017-08-19T16:57:48.895Z,21.40
2017-08-19T17:00:16.976Z,21.40
2017-08-19T17:02:45.072Z,21.50
2017-08-19T17:05:13.140Z,21.50
2017-08-19T17:07:41.213Z,21.50
2017-08-19T17:10:09.292Z,21.40
2017-08-19T17:12:37.359Z,21.40
2017-08-19T17:15:05.440Z,21.40
2017-08-19T17:17:33.503Z,21.30
2017-08-19T17:20:01.607Z,21.30
2017-08-19T17:22:29.727Z,21.30
2017-08-19T17:24:57.843Z,21.20
2017-08-19T17:27:26.683Z,21.00
2017-08-19T17:29:54.768Z,21.10
2017-08-19T17:32:22.839Z,21.00
2017-08-19T17:34:50.911Z,21.00
2017-08-19T17:37:18.993Z,21.10
2017-08-19T17:39:47.058Z,21.00
2017-08-19T17:42:15.134Z,21.00
2017-08-19T17:44:43.202Z,20.80
2017-08-19T17:47:11.276Z,20.80
2017-08-19T17:49:39.347Z,20.80
2017-08-19T17:52:07.420Z,20.90
2017-08-19T17:54:35.493Z,20.80
2017-08-19T17:57:03.567Z,20.80
2017-08-19T17:59:31.635Z,20.80
2017-08-19T18:01:59.856Z,20.80
2017-08-19T18:04:28.692Z,20.80
2017-08-19T18:06:56.988Z,20.80
2017-08-19T18:09:25.085Z,20.70
2017-08-19T18:11:53.932Z,20.60
2017-08-19T18:14:22.037Z,20.60
2017-08-19T18:16:50.922Z,20.40
2017-08-19T18:19:19.073Z,20.40
2017-08-19T18:21:47.152Z,20.40
2017-08-19T18:24:15.250Z,20.20
2017-08-19T18:26:44.122Z,20.00
2017-08-19T18:29:12.231Z,20.00
2017-08-19T18:31:41.100Z,19.90
2017-08-19T18:34:09.212Z,19.90
2017-08-19T18:36:37.395Z,20.00
2017-08-19T18:39:05.489Z,20.10
2017-08-19T18:41:33.580Z,20.10
2017-08-19T18:44:01.676Z,20.10
2017-08-19T18:46:29.882Z,20.10
2017-08-19T18:48:57.955Z,20.10
2017-08-19T18:51:26.062Z,20.00
2017-08-19T18:53:54.177Z,20.00
2017-08-19T18:56:22.276Z,19.90
2017-08-19T18:58:50.369Z,19.80
2017-08-19T19:01:18.441Z,19.70
2017-08-19T19:03:46.536Z,19.60
2017-08-19T19:06:14.629Z,19.70
2017-08-19T19:08:42.695Z,19.70
2017-08-19T19:11:10.768Z,19.70
2017-08-19T19:13:38.843Z,19.50
2017-08-19T19:16:06.917Z,19.50
2017-08-19T19:18:34.996Z,19.50
2017-08-19T19:21:03.069Z,19.50
2017-08-19T19:23:31.238Z,19.50
2017-08-19T19:26:00.096Z,19.40
2017-08-19T19:28:28.199Z,19.40
2017-08-19T19:30:56.280Z,19.20
2017-08-19T19:33:24.412Z,19.10
2017-08-19T19:35:52.505Z,19.10
2017-08-19T19:38:20.607Z,19.10
2017-08-19T19:40:49.461Z,19.00
2017-08-19T19:43:17.552Z,19.10
2017-08-19T19:45:45.641Z,19.00
2017-08-19T19:48:14.496Z,18.80
2017-08-19T19:50:42.597Z,18.80
2017-08-19T19:53:10.681Z,18.70
2017-08-19T19:55:38.798Z,18.70
2017-08-19T19:58:06.872Z,18.60
2017-08-19T20:00:34.985Z,18.60
2017-08-19T20:03:03.127Z,18.40
2017-08-19T20:05:31.609Z,18.40
2017-08-19T20:07:59.692Z,18.30
2017-08-19T20:10:27.798Z,18.40
2017-08-19T20:12:56.046Z,18.40
2017-08-19T20:15:24.112Z,18.50
2017-08-19T20:17:52.197Z,18.50
2017-08-19T20:20:20.274Z,18.30
2017-08-19T20:22:48.353Z,18.30
2017-08-19T20:25:16.428Z,18.30
2017-08-19T20:27:44.554Z,18.30
2017-08-19T20:30:12.656Z,18.40
2017-08-19T20:32:40.747Z,18.30
2017-08-19T20:35:08.860Z,18.30
2017-08-19T20:37:36.955Z,18.20
2017-08-19T20:40:05.048Z,18.10
2017-08-19T20:42:33.117Z,18.10
2017-08-19T20:45:01.223Z,18.10
2017-08-19T20:47:30.078Z,17.90
2017-08-19T20:49:58.176Z,17.90
2017-08-19T20:52:26.255Z,17.90
2017-08-19T20:54:55.116Z,17.90
2017-08-19T20:57:23.225Z,17.90
2017-08-19T20:59:51.365Z,17.80
2017-08-19T21:02:19.434Z,17.80
2017-08-19T21:04:47.532Z,17.70
2017-08-19T21:07:15.616Z,17.50
2017-08-19T21:09:44.610Z,17.30
2017-08-19T21:12:13.473Z,17.20
2017-08-19T21:14:41.547Z,17.20
2017-08-19T21:17:09.635Z,17.10
2017-08-19T21:19:37.708Z,17.10
2017-08-19T21:22:05.782Z,17.20
2017-08-19T21:24:34.699Z,16.90
2017-08-19T21:27:02.816Z,16.80
2017-08-19T21:29:30.913Z,16.70
2017-08-19T21:31:59.000Z,16.30
2017-08-19T21:34:28.032Z,15.90
2017-08-19T21:36:56.200Z,15.80
2017-08-19T21:39:24.424Z,15.70
2017-08-19T21:41:52.732Z,15.50
2017-08-19T21:44:20.889Z,15.60
2017-08-19T21:46:50.425Z,15.40
2017-08-19T21:49:18.544Z,15.40
2017-08-19T21:51:46.769Z,15.50
2017-08-19T21:54:24.851Z,15.30
2017-08-19T21:56:52.931Z,15.30
2017-08-19T21:59:21.782Z,15.00
2017-08-19T22:01:50.004Z,15.00
2017-08-19T22:04:18.891Z,15.20
2017-08-19T22:06:47.346Z,15.10
2017-08-19T22:09:16.079Z,15.20
2017-08-19T22:11:44.620Z,15.20
2017-08-19T22:14:14.937Z,15.00
2017-08-19T22:16:44.243Z,15.00
2017-08-19T22:19:12.711Z,15.00
2017-08-19T22:21:42.052Z,15.00
2017-08-19T22:24:10.682Z,15.00
2017-08-19T22:26:39.222Z,15.00
2017-08-19T22:29:07.360Z,14.90
2017-08-19T22:31:35.481Z,14.90
2017-08-19T22:34:03.587Z,14.80
2017-08-19T22:36:31.654Z,14.70
2017-08-19T22:38:59.728Z,14.40
2017-08-19T22:41:27.826Z,14.30
2017-08-19T22:43:55.896Z,14.20
2017-08-19T22:46:23.971Z,14.30
2017-08-19T22:48:52.052Z,14.40
2017-08-19T22:51:20.133Z,14.30
2017-08-19T22:53:48.223Z,14.20
2017-08-19T22:56:17.056Z,14.40
2017-08-19T22:58:45.135Z,14.30
2017-08-19T23:01:13.206Z,14.30
2017-08-19T23:03:41.496Z,14.30
2017-08-19T23:06:09.567Z,14.30
2017-08-19T23:08:37.667Z,14.20
2017-08-19T23:11:05.816Z,14.20
2017-08-19T23:13:33.892Z,14.00
2017-08-19T23:16:01.975Z,14.00
2017-08-19T23:18:30.103Z,13.90
2017-08-19T23:20:58.188Z,13.90
2017-08-19T23:23:26.259Z,13.90
2017-08-19T23:25:56.131Z,14.00
2017-08-19T23:28:24.203Z,14.10
2017-08-19T23:30:53.149Z,14.20
2017-08-19T23:33:21.227Z,14.20
2017-08-19T23:35:49.308Z,14.30
2017-08-19T23:38:17.392Z,14.40
2017-08-19T23:40:45.471Z,14.40
2017-08-19T23:43:13.631Z,14.60
2017-08-19T23:45:41.714Z,14.60
2017-08-19T23:48:09.783Z,14.50
2017-08-19T23:50:37.862Z,14.50
2017-08-19T23:53:05.941Z,14.70
2017-08-19T23:55:35.744Z,14.70
2017-08-19T23:58:03.817Z,14.70
